Time;durP1;ratioP1;P1;durP2;ratioP2;P2;SDS_P1;SDS_P2;PMS_P1;PMS_P2;Temp;Humidity;BMP_temperature;BMP_pressure;BME280_temperature;BME280_humidity;BME280_pressure;Samples;Min_cycle;Max_cycle;Signal;HPM_P1;HPM_P2
2022/06/02 00:00:05;;;;;;;5.07;4.68;;;;;;;11.61;75.43;102125.44;5058657;28;20370;-79
2022/06/02 00:02:39;;;;;;;4.63;4.22;;;;;;;11.59;75.53;102126.34;5074600;28;20240;-79
2022/06/02 00:05:21;;;;;;;4.75;4.35;;;;;;;11.58;75.33;102127.28;5077244;28;20347;-79
2022/06/02 00:08:02;;;;;;;4.78;4.47;;;;;;;11.56;75.46;102129.94;5078699;28;20055;-79
2022/06/02 00:11:06;;;;;;;6.03;4.72;;;;;;;11.54;75.50;102129.09;5077584;28;20146;-78
2022/06/02 00:13:55;;;;;;;6.80;5.03;;;;;;;11.51;75.19;102129.16;5063888;28;20332;-79
2022/06/02 00:16:30;;;;;;;5.32;4.93;;;;;;;11.48;75.51;102130.13;5057248;28;20044;-79
2022/06/02 00:19:02;;;;;;;5.07;4.78;;;;;;;11.45;75.51;102124.94;5061148;28;20055;-79
2022/06/02 00:21:37;;;;;;;5.20;4.90;;;;;;;11.43;75.37;102124.13;5067856;28;20066;-79
2022/06/02 00:24:44;;;;;;;6.15;5.65;;;;;;;11.41;75.34;102127.69;5051441;28;20048;-79
2022/06/02 00:27:26;;;;;;;5.47;5.07;;;;;;;11.38;75.46;102125.97;5017577;28;20048;-79
2022/06/02 00:29:57;;;;;;;5.57;5.18;;;;;;;11.36;75.27;102125.16;5066720;28;20036;-79
2022/06/02 00:32:57;;;;;;;6.10;5.57;;;;;;;11.34;75.35;102125.19;5042506;28;20043;-79
2022/06/02 00:35:40;;;;;;;5.85;5.47;;;;;;;11.31;75.59;102129.66;5013015;28;20364;-79
2022/06/02 00:38:18;;;;;;;6.15;5.65;;;;;;;11.31;75.60;102129.66;5041041;28;20063;-79
2022/06/02 00:40:45;;;;;;;6.03;5.63;;;;;;;11.29;75.64;102128.81;5069306;28;20040;-79
2022/06/02 00:43:18;;;;;;;6.20;5.70;;;;;;;11.27;75.55;102126.22;5048086;28;20046;-79
2022/06/02 00:45:45;;;;;;;5.90;5.50;;;;;;;11.25;75.44;102128.03;5063307;28;20052;-79
2022/06/02 00:48:37;;;;;;;5.90;5.50;;;;;;;11.23;75.44;102129.81;5056319;28;20045;-79
2022/06/02 00:51:06;;;;;;;8.10;5.85;;;;;;;11.21;75.52;102128.16;5058369;28;20052;-79
2022/06/02 00:53:39;;;;;;;6.78;6.07;;;;;;;11.19;75.44;102130.81;5041012;28;20033;-79
2022/06/02 00:59:24;;;;;;;6.32;5.82;;;;;;;11.14;75.77;102133.50;5057385;28;20043;-79
2022/06/02 01:04:41;;;;;;;7.60;7.00;;;;;;;11.10;75.58;102128.38;5047506;28;20044;-79
2022/06/02 01:07:39;;;;;;;6.07;5.68;;;;;;;11.11;75.75;102132.72;5056719;28;20037;-79
2022/06/02 01:10:21;;;;;;;7.68;7.03;;;;;;;11.08;75.51;102130.19;5061165;28;20037;-79
2022/06/02 01:12:50;;;;;;;6.40;5.82;;;;;;;11.05;75.58;102133.72;5043923;28;20013;-79
2022/06/02 01:16:02;;;;;;;7.32;6.70;;;;;;;11.04;75.68;102137.25;5074350;28;20100;-79
2022/06/02 01:18:30;;;;;;;6.80;6.30;;;;;;;11.01;75.63;102133.84;4979583;28;20042;-79
2022/06/02 01:21:34;;;;;;;6.90;6.30;;;;;;;11.00;75.54;102137.34;4996222;28;20089;-79
2022/06/02 01:24:38;;;;;;;7.20;6.55;;;;;;;11.00;75.57;102145.22;5015585;28;20059;-79
2022/06/02 01:27:38;;;;;;;6.32;5.88;;;;;;;10.97;75.61;102145.25;5068909;28;20099;-79
2022/06/02 01:30:22;;;;;;;6.78;6.38;;;;;;;10.93;75.61;102147.97;5035970;28;20046;-79
2022/06/02 01:32:59;;;;;;;6.22;5.80;;;;;;;10.92;75.84;102141.00;5076875;28;20352;-79
2022/06/02 01:35:42;;;;;;;6.00;5.47;;;;;;;10.90;75.89;102148.03;5057967;28;20029;-79
2022/06/02 01:38:49;;;;;;;6.40;5.80;;;;;;;10.90;75.79;102150.66;5076293;28;20317;-79
2022/06/02 01:41:25;;;;;;;6.95;5.70;;;;;;;10.88;75.75;102149.81;5034900;28;20345;-79
2022/06/02 01:44:24;;;;;;;5.55;5.15;;;;;;;10.86;75.68;102151.63;5041588;28;20132;-79
2022/06/02 01:46:49;;;;;;;;;;;;;;;10.86;75.94;102148.09;5066777;28;20049;-79
2022/06/02 01:49:43;;;;;;;7.43;6.13;;;;;;;10.84;75.73;102148.16;5059188;28;19955;-79
2022/06/02 01:52:28;;;;;;;6.05;5.55;;;;;;;10.83;75.99;102148.19;5053951;28;20051;-79
2022/06/02 01:55:05;;;;;;;6.10;5.70;;;;;;;10.80;75.79;102146.47;5066194;28;20065;-79
2022/06/02 01:57:49;;;;;;;6.68;5.90;;;;;;;10.80;75.92;102146.47;5077249;28;20033;-79
2022/06/02 02:00:19;;;;;;;6.53;5.65;;;;;;;10.79;76.05;102142.16;5060830;28;20092;-79
2022/06/02 02:03:02;;;;;;;6.85;6.25;;;;;;;10.80;76.24;102143.00;5057535;28;20028;-79
2022/06/02 02:05:48;;;;;;;6.70;5.90;;;;;;;10.76;75.79;102137.81;5073153;28;20099;-79
2022/06/02 02:08:35;;;;;;;9.55;5.85;;;;;;;10.78;76.25;102142.19;5056887;28;20051;-79
2022/06/02 02:11:19;;;;;;;6.22;5.82;;;;;;;10.76;76.00;102137.81;5057455;28;20170;-75
2022/06/02 02:14:14;;;;;;;5.72;5.20;;;;;;;10.75;76.06;102143.09;5057965;28;20047;-76
2022/06/02 02:16:58;;;;;;;6.13;5.70;;;;;;;10.75;76.08;102143.09;5054972;28;20063;-76
2022/06/02 02:19:49;;;;;;;5.82;5.38;;;;;;;10.73;76.34;102145.75;5032544;28;20017;-75
2022/06/02 02:22:23;;;;;;;6.40;5.90;;;;;;;10.72;76.31;102156.28;5053324;28;20103;-76
2022/06/02 02:25:01;;;;;;;6.22;5.82;;;;;;;10.71;76.46;102151.91;5039207;28;20047;-76
2022/06/02 02:28:02;;;;;;;6.88;6.38;;;;;;;10.69;76.47;102145.84;5056680;28;20348;-76
2022/06/02 02:30:29;;;;;;;6.72;6.20;;;;;;;10.67;76.40;102152.88;5048371;28;20040;-76
2022/06/02 02:33:02;;;;;;;7.18;6.57;;;;;;;10.67;76.45;102151.13;5059728;28;20332;-76
2022/06/02 02:35:48;;;;;;;6.97;6.32;;;;;;;10.66;76.52;102154.66;5048493;28;20216;-76
2022/06/02 02:38:24;;;;;;;7.70;7.03;;;;;;;10.65;76.39;102152.03;5036184;28;20033;-76
2022/06/02 02:41:00;;;;;;;7.78;7.18;;;;;;;10.64;76.27;102153.81;5056856;28;20102;-76
2022/06/02 02:43:32;;;;;;;7.28;6.47;;;;;;;10.64;76.21;102153.81;5057828;28;20280;-76
2022/06/02 02:46:15;;;;;;;7.38;6.85;;;;;;;10.64;76.54;102150.31;5058859;28;20388;-75
2022/06/02 02:48:59;;;;;;;7.68;6.97;;;;;;;10.62;76.61;102152.09;5060178;28;20052;-76
2022/06/02 02:51:55;;;;;;;7.30;6.80;;;;;;;10.61;76.53;102155.63;5044296;28;20032;-75
2022/06/02 02:54:23;;;;;;;7.63;7.03;;;;;;;10.60;76.37;102157.38;5059385;28;20049;-76
2022/06/02 02:57:04;;;;;;;7.25;6.65;;;;;;;10.59;76.62;102153.03;5067235;28;20032;-76
2022/06/02 02:59:48;;;;;;;8.30;7.05;;;;;;;10.57;76.41;102155.69;5063074;28;20056;-76
2022/06/02 03:02:20;;;;;;;7.93;7.40;;;;;;;10.56;76.67;102158.31;5065577;28;20047;-76
2022/06/02 03:05:05;;;;;;;8.35;7.05;;;;;;;10.54;76.65;102153.13;5041531;28;20321;-76
2022/06/02 03:07:31;;;;;;;8.88;7.93;;;;;;;10.52;76.40;102156.66;5061997;28;20036;-76
2022/06/02 03:10:03;;;;;;;7.68;7.07;;;;;;;10.51;76.39;102155.81;5059108;28;20269;-76
2022/06/02 03:12:35;;;;;;;8.80;7.97;;;;;;;10.50;76.59;102156.69;5058910;28;20056;-77
2022/06/02 03:15:11;;;;;;;9.02;8.18;;;;;;;10.48;76.63;102155.00;5061707;28;20063;-76
2022/06/02 03:17:45;;;;;;;8.38;7.68;;;;;;;10.47;76.63;102161.13;5058902;28;20408;-77
2022/06/02 03:20:20;;;;;;;8.23;7.53;;;;;;;10.46;76.39;102157.66;5077451;28;20358;-76
2022/06/02 03:23:32;;;;;;;8.45;7.63;;;;;;;10.45;76.58;102157.69;5075236;28;20040;-76
2022/06/02 03:26:05;;;;;;;8.07;7.38;;;;;;;10.43;76.35;102155.09;5077579;28;20206;-76
2022/06/02 03:28:49;;;;;;;10.88;7.32;;;;;;;10.42;76.58;102165.59;5077610;28;20029;-76
2022/06/02 03:31:30;;;;;;;7.72;7.03;;;;;;;10.40;76.44;102163.00;5059115;28;20127;-76
2022/06/02 03:34:07;;;;;;;7.78;7.18;;;;;;;10.38;76.57;102160.41;5077054;28;20041;-76
2022/06/02 03:36:54;;;;;;;7.47;6.90;;;;;;;10.37;76.50;102166.53;5077388;28;20043;-76
2022/06/02 03:39:46;;;;;;;7.43;6.82;;;;;;;10.36;76.62;102171.81;5076370;28;20045;-76
2022/06/02 03:42:39;;;;;;;8.07;7.32;;;;;;;10.34;76.63;102168.34;5076633;28;20040;-76
2022/06/02 03:46:06;;;;;;;8.75;7.28;;;;;;;10.31;76.56;102161.41;5076774;28;20028;-76
2022/06/02 03:49:08;;;;;;;11.18;8.23;;;;;;;10.30;76.59;102170.13;5029634;28;20048;-76
2022/06/02 03:52:06;;;;;;;8.75;8.05;;;;;;;10.28;76.61;102174.53;5073460;28;20055;-76
2022/06/02 03:54:51;;;;;;;9.40;8.60;;;;;;;10.27;76.62;102180.66;5054500;28;20335;-76
2022/06/02 03:57:26;;;;;;;9.15;8.25;;;;;;;10.27;76.47;102182.41;5076091;28;20039;-77
2022/06/02 04:00:07;;;;;;;8.90;8.02;;;;;;;10.26;76.62;102180.66;5059183;28;20297;-76
2022/06/02 04:02:36;;;;;;;9.55;8.65;;;;;;;10.24;76.56;102192.94;5076947;28;20036;-76
2022/06/02 04:05:36;;;;;;;9.02;7.90;;;;;;;10.23;76.77;102191.22;5076388;28;20197;-76
2022/06/02 04:08:02;;;;;;;8.88;8.18;;;;;;;10.22;76.43;102189.47;5076274;28;20059;-75
2022/06/02 04:11:03;;;;;;;8.93;8.20;;;;;;;10.22;76.80;102189.47;5076954;28;20259;-76
2022/06/02 04:14:08;;;;;;;9.38;8.48;;;;;;;10.21;76.51;102193.00;5076722;28;20063;-77
2022/06/02 04:17:21;;;;;;;8.35;7.65;;;;;;;10.19;76.49;102199.13;5076509;28;20437;-76
2022/06/02 04:23:17;;;;;;;9.35;8.55;;;;;;;10.19;76.64;102198.25;4984203;28;20094;-76
2022/06/02 04:26:10;;;;;;;9.52;8.57;;;;;;;10.18;76.93;102204.38;5076629;28;20104;-76
2022/06/02 04:29:20;;;;;;;8.95;8.05;;;;;;;10.17;76.79;102202.66;5088440;28;20091;-76
2022/06/02 04:32:23;;;;;;;8.77;7.88;;;;;;;10.17;76.83;102202.66;5064821;28;20135;-76
2022/06/02 04:35:13;;;;;;;8.32;7.63;;;;;;;10.16;76.99;102209.63;5090287;28;20036;-76
2022/06/02 04:37:41;;;;;;;8.63;7.82;;;;;;;10.16;76.99;102216.63;5085393;28;20040;-76
2022/06/02 04:40:25;;;;;;;8.70;7.95;;;;;;;10.15;77.09;102221.00;5081512;28;20023;-76
2022/06/02 04:43:01;;;;;;;8.60;7.78;;;;;;;10.16;77.11;102224.47;5107581;28;20103;-76
2022/06/02 04:46:00;;;;;;;8.52;7.50;;;;;;;10.14;77.13;102224.50;5099036;28;20016;-76
2022/06/02 04:48:52;;;;;;;13.23;8.05;;;;;;;10.16;77.21;102225.34;5073212;28;20032;-76
2022/06/02 04:51:43;;;;;;;8.60;7.63;;;;;;;10.18;77.28;102230.56;5075483;28;20059;-76
2022/06/02 04:54:30;;;;;;;9.88;8.32;;;;;;;10.17;77.34;102229.69;5075495;28;20040;-76
2022/06/02 04:57:16;;;;;;;10.25;8.20;;;;;;;10.18;77.61;102235.78;5075939;28;20050;-76
2022/06/02 05:00:03;;;;;;;9.10;8.25;;;;;;;10.18;77.49;102231.41;5052404;28;20267;-76
2022/06/02 05:02:41;;;;;;;9.07;8.18;;;;;;;10.19;77.32;102230.53;5075653;28;20105;-76
2022/06/02 05:05:23;;;;;;;7.00;6.40;;;;;;;10.19;77.75;102237.53;5075077;28;20324;-75
2022/06/02 05:08:29;;;;;;;6.60;6.20;;;;;;;10.21;77.36;102242.75;5075751;28;20036;-76
2022/06/02 05:11:34;;;;;;;6.68;6.18;;;;;;;10.21;77.42;102240.13;5073007;28;20311;-76
2022/06/02 05:14:11;;;;;;;6.93;6.20;;;;;;;10.22;77.30;102242.69;5075213;28;20367;-76
2022/06/02 05:16:55;;;;;;;7.53;6.85;;;;;;;10.25;77.48;102244.41;5056935;28;20047;-76
2022/06/02 05:19:23;;;;;;;8.93;7.32;;;;;;;10.26;77.57;102248.75;5056960;28;20268;-76
2022/06/02 05:22:07;;;;;;;8.23;7.53;;;;;;;10.28;77.75;102245.22;5074733;28;20040;-76
2022/06/02 05:24:35;;;;;;;7.07;6.47;;;;;;;10.30;78.07;102259.16;5074972;28;20079;-76
2022/06/02 05:27:09;;;;;;;9.55;7.15;;;;;;;10.31;78.35;102252.19;5057193;28;20024;-76
2022/06/02 05:30:13;;;;;;;7.40;6.70;;;;;;;10.33;78.02;102253.03;5074937;28;20040;-76
2022/06/02 05:33:00;;;;;;;6.80;6.25;;;;;;;10.34;78.03;102255.63;5075247;28;20029;-76
2022/06/02 05:36:10;;;;;;;7.20;6.60;;;;;;;10.35;77.95;102259.09;5074541;28;20103;-76
2022/06/02 05:38:44;;;;;;;7.47;6.82;;;;;;;10.37;78.02;102263.44;5075027;28;20036;-76
2022/06/02 05:41:19;;;;;;;6.63;6.13;;;;;;;10.37;77.97;102252.97;5074692;28;20036;-76
2022/06/02 05:43:44;;;;;;;6.20;5.70;;;;;;;10.38;78.23;102259.91;5073859;28;20040;-76
2022/06/02 05:46:32;;;;;;;6.95;6.35;;;;;;;10.38;78.22;102254.66;5066817;28;20094;-76
2022/06/02 05:49:10;;;;;;;6.70;6.10;;;;;;;10.41;78.22;102258.16;5082561;28;20036;-77
2022/06/02 05:52:10;;;;;;;8.30;7.60;;;;;;;10.42;78.06;102260.72;5083629;28;20024;-76
2022/06/02 05:54:48;;;;;;;7.47;6.80;;;;;;;10.44;78.60;102258.09;5082299;28;20410;-76
2022/06/02 05:57:35;;;;;;;7.07;6.57;;;;;;;10.44;79.17;102260.69;5080453;28;20201;-77
2022/06/02 06:00:25;;;;;;;9.93;9.02;;;;;;;10.46;79.17;102265.03;5078847;28;20594;-76
2022/06/02 06:03:16;;;;;;;8.25;7.45;;;;;;;10.46;79.53;102267.66;5080763;28;20040;-76
2022/06/02 06:05:45;;;;;;;9.07;8.38;;;;;;;10.48;80.06;102265.03;5064637;28;20024;-76
2022/06/02 06:08:11;;;;;;;;;;;;;;;10.49;80.04;102269.34;5083587;28;20036;-76
2022/06/02 06:11:01;;;;;;;8.65;7.88;;;;;;;10.52;80.12;102272.78;5063019;28;19954;-76
2022/06/02 06:13:29;;;;;;;8.93;8.25;;;;;;;10.54;80.32;102275.38;5078682;28;20056;-76
2022/06/02 06:16:25;;;;;;;7.10;6.50;;;;;;;10.57;80.57;102275.34;5077294;28;20292;-76
2022/06/02 06:19:25;;;;;;;7.38;6.75;;;;;;;10.60;80.87;102270.00;5079430;28;20024;-76
2022/06/02 06:22:10;;;;;;;7.93;7.32;;;;;;;10.64;80.73;102270.81;5084403;28;20024;-76
2022/06/02 06:25:04;;;;;;;7.65;6.95;;;;;;;10.66;80.92;102267.31;5085299;28;20359;-76
2022/06/02 06:27:37;;;;;;;7.88;7.13;;;;;;;10.69;81.59;102269.84;5083092;28;20036;-76
2022/06/02 06:30:38;;;;;;;6.45;6.05;;;;;;;10.74;82.46;102268.00;5085585;28;20028;-76
2022/06/02 06:33:21;;;;;;;6.68;5.85;;;;;;;10.77;82.86;102269.72;5075406;28;20063;-77
2022/06/02 06:36:01;;;;;;;7.55;6.95;;;;;;;10.82;83.10;102272.25;5086891;28;20043;-76
2022/06/02 06:38:47;;;;;;;6.60;6.00;;;;;;;10.85;83.00;102277.44;5084525;28;20028;-76
2022/06/02 06:41:46;;;;;;;7.57;6.88;;;;;;;10.89;83.35;102276.47;5088228;28;20044;-76
2022/06/02 06:44:24;;;;;;;;;;;;;;;10.91;83.31;102279.94;5082358;28;20040;-76
2022/06/02 06:47:16;;;;;;;7.88;7.22;;;;;;;10.95;83.24;102284.22;5083635;28;19913;-76
2022/06/02 06:50:07;;;;;;;7.18;6.30;;;;;;;10.97;82.71;102295.56;5071332;28;20415;-77
2022/06/02 06:52:54;;;;;;;7.65;6.85;;;;;;;10.98;82.56;102297.28;5086282;28;20052;-76
2022/06/02 06:56:00;;;;;;;6.70;6.20;;;;;;;10.99;82.52;102295.50;5083319;28;20058;-76
2022/06/02 06:58:48;;;;;;;10.25;9.13;;;;;;;11.01;82.78;102296.38;5068480;28;20119;-76
2022/06/02 07:01:50;;;;;;;8.30;7.57;;;;;;;11.03;82.99;102299.81;5070560;28;20332;-76
2022/06/02 07:04:44;;;;;;;9.40;8.65;;;;;;;11.06;83.06;102303.25;5052545;28;20032;-76
2022/06/02 07:07:31;;;;;;;8.27;7.47;;;;;;;11.09;83.26;102305.78;5075236;28;20044;-76
2022/06/02 07:10:08;;;;;;;8.43;7.75;;;;;;;11.12;83.16;102303.13;5077522;28;20031;-76
2022/06/02 07:12:53;;;;;;;8.70;7.90;;;;;;;11.14;82.97;102305.72;5085047;28;20037;-76
2022/06/02 07:15:33;;;;;;;7.22;6.63;;;;;;;11.16;82.63;102308.31;5072490;28;20051;-76
2022/06/02 07:18:12;;;;;;;6.68;6.15;;;;;;;11.18;82.49;102312.63;5082912;28;20354;-76
2022/06/02 07:21:16;;;;;;;7.63;6.50;;;;;;;11.18;82.60;102315.25;5076410;28;20420;-76
2022/06/02 07:24:12;;;;;;;7.22;6.63;;;;;;;11.20;82.49;102323.06;5013686;28;20380;-76
2022/06/02 07:26:53;;;;;;;8.65;7.85;;;;;;;11.18;82.52;102319.63;5072667;28;20185;-76
2022/06/02 07:29:44;;;;;;;9.98;8.00;;;;;;;11.22;82.04;102330.00;5078454;28;20047;-76
2022/06/02 07:32:29;;;;;;;7.72;6.95;;;;;;;11.24;82.07;102329.97;5058845;28;20098;-76
2022/06/02 07:35:02;;;;;;;6.25;5.75;;;;;;;11.27;81.50;102327.31;5083178;28;20051;-76
2022/06/02 07:37:47;;;;;;;6.38;5.85;;;;;;;11.29;81.32;102336.00;5082387;28;20036;-76
2022/06/02 07:40:51;;;;;;;5.50;5.10;;;;;;;11.30;81.28;102322.88;5061553;28;20075;-76
2022/06/02 07:43:54;;;;;;;5.90;5.50;;;;;;;11.31;80.96;102329.84;5068156;28;20079;-76
2022/06/02 07:46:29;;;;;;;4.80;4.40;;;;;;;11.32;80.47;102336.81;5077130;28;20046;-76
2022/06/02 07:49:16;;;;;;;4.35;4.05;;;;;;;11.33;80.45;102345.53;5063444;28;20103;-76
2022/06/02 07:52:04;;;;;;;4.70;4.40;;;;;;;11.33;80.01;102345.53;5073337;28;20043;-76
2022/06/02 07:54:38;;;;;;;4.68;4.28;;;;;;;11.33;79.78;102346.41;5074944;28;20055;-76
2022/06/02 07:57:33;;;;;;;5.43;5.03;;;;;;;11.34;79.63;102349.91;5074947;28;20051;-76
2022/06/02 08:00:04;;;;;;;4.68;4.32;;;;;;;11.35;79.49;102349.03;5077246;28;20128;-76
2022/06/02 08:02:55;;;;;;;6.45;5.80;;;;;;;11.37;79.58;102351.59;5076523;28;20037;-76
2022/06/02 08:05:31;;;;;;;6.07;5.50;;;;;;;11.39;79.61;102345.44;5070863;28;20869;-76
2022/06/02 08:08:02;;;;;;;5.78;5.38;;;;;;;11.40;79.53;102349.75;5076700;28;20048;-76
2022/06/02 08:11:02;;;;;;;6.85;6.13;;;;;;;11.42;79.49;102347.97;5077571;28;20032;-76
2022/06/02 08:13:49;;;;;;;6.30;5.70;;;;;;;11.46;79.39;102347.03;5074386;28;20136;-76
2022/06/02 08:16:55;;;;;;;7.50;6.63;;;;;;;11.53;79.15;102345.13;5063937;28;20089;-76
2022/06/02 08:19:30;;;;;;;5.45;5.05;;;;;;;11.58;79.08;102339.81;5075696;28;20040;-76
2022/06/02 08:21:59;;;;;;;6.20;5.70;;;;;;;11.61;78.91;102345.00;5070520;28;20303;-76
2022/06/02 08:24:39;;;;;;;6.68;6.07;;;;;;;11.67;79.03;102352.72;5069289;28;20040;-76
2022/06/02 08:27:23;;;;;;;7.07;6.38;;;;;;;11.72;79.59;102350.88;5076075;28;20043;-76
2022/06/02 08:30:01;;;;;;;7.07;6.43;;;;;;;11.77;79.46;102350.75;5077494;28;20024;-76
2022/06/02 08:32:58;;;;;;;6.80;6.20;;;;;;;11.83;79.92;102348.03;5073150;28;20218;-76
2022/06/02 08:35:45;;;;;;;5.53;5.13;;;;;;;11.88;79.77;102351.41;5068630;28;20336;-76
2022/06/02 08:38:28;;;;;;;6.60;6.00;;;;;;;11.95;79.01;102346.91;5068041;28;20360;-76
2022/06/02 08:41:28;;;;;;;6.35;5.80;;;;;;;12.03;78.91;102350.22;5068332;28;20092;-76
2022/06/02 08:44:31;;;;;;;5.93;5.43;;;;;;;12.12;78.12;102346.53;5078688;28;20034;-76
2022/06/02 08:47:33;;;;;;;4.25;4.05;;;;;;;12.18;77.58;102349.88;5076122;28;20044;-76
2022/06/02 08:50:20;;;;;;;7.57;3.67;;;;;;;12.21;76.22;102351.56;5072671;28;20029;-76
2022/06/02 08:53:03;;;;;;;4.20;3.83;;;;;;;12.23;74.87;102355.88;5078818;28;20040;-76
2022/06/02 08:55:53;;;;;;;4.70;4.30;;;;;;;12.31;75.26;102353.06;5080286;28;20029;-76
2022/06/02 08:58:40;;;;;;;4.43;4.13;;;;;;;12.42;75.15;102361.53;5074831;28;20267;-76
2022/06/02 09:01:49;;;;;;;4.03;3.67;;;;;;;12.51;75.67;102354.34;5075952;28;20024;-76
2022/06/02 09:04:37;;;;;;;;;;;;;;;12.58;75.93;102353.31;5069675;28;20143;-76
2022/06/02 09:07:40;;;;;;;4.30;3.92;;;;;;;12.68;73.82;102357.44;5067905;28;19912;-76
2022/06/02 09:10:24;;;;;;;4.90;3.55;;;;;;;12.75;73.43;102355.50;5074498;28;20279;-76
2022/06/02 09:13:18;;;;;;;3.65;3.45;;;;;;;12.83;71.71;102359.66;5079944;28;20028;-76
2022/06/02 09:15:56;;;;;;;4.25;3.92;;;;;;;12.87;70.78;102363.06;5041554;28;20071;-76
2022/06/02 09:18:40;;;;;;;6.30;3.65;;;;;;;12.92;71.17;102365.59;5074913;28;20108;-76
2022/06/02 09:21:21;;;;;;;3.30;2.90;;;;;;;12.93;71.50;102362.91;5082514;28;20043;-76
2022/06/02 09:24:14;;;;;;;2.90;2.70;;;;;;;12.96;71.72;102361.97;5065670;28;20103;-76
2022/06/02 09:26:42;;;;;;;3.22;3.03;;;;;;;13.04;68.99;102365.25;5073383;28;20407;-76
2022/06/02 09:29:41;;;;;;;3.22;3.03;;;;;;;13.09;68.97;102365.16;5078391;28;20050;-76
2022/06/02 09:32:54;;;;;;;5.32;3.65;;;;;;;13.19;69.35;102362.22;5080332;28;20039;-76
2022/06/02 09:35:22;;;;;;;3.70;3.05;;;;;;;13.28;70.81;102363.75;4991390;28;20042;-76
2022/06/02 09:37:47;;;;;;;3.10;2.90;;;;;;;13.34;70.32;102368.00;5066352;28;20044;-76
2022/06/02 09:40:36;;;;;;;3.55;2.90;;;;;;;13.41;68.41;102370.41;5075185;28;20108;-76
2022/06/02 09:43:20;;;;;;;;;;;;;;;13.43;67.40;102371.22;5077757;28;20131;-77
2022/06/02 09:46:31;;;;;;;2.55;2.42;;;;;;;13.53;67.08;102368.34;5059597;28;19922;-76
2022/06/02 09:49:11;;;;;;;3.03;2.83;;;;;;;13.59;68.15;102362.91;5060151;28;20055;-76
2022/06/02 09:51:55;;;;;;;4.07;2.75;;;;;;;13.63;66.42;102364.53;5080123;28;20031;-76
2022/06/02 09:54:48;;;;;;;2.80;2.60;;;;;;;13.62;66.86;102355.78;5077412;28;20089;-76
2022/06/02 09:57:58;;;;;;;2.60;2.40;;;;;;;13.63;67.42;102352.22;5079635;28;20044;-76
2022/06/02 10:00:35;;;;;;;2.55;2.35;;;;;;;13.71;67.88;102348.50;5086043;28;20246;-76
2022/06/02 10:03:12;;;;;;;2.63;2.42;;;;;;;13.80;67.32;102354.34;5082254;28;20050;-76
2022/06/02 10:05:40;;;;;;;3.88;2.10;;;;;;;13.84;66.25;102347.22;5080205;28;20209;-76
2022/06/02 10:08:26;;;;;;;1.90;1.80;;;;;;;13.87;67.14;102347.13;5082670;28;20044;-76
2022/06/02 10:11:22;;;;;;;2.60;2.40;;;;;;;13.88;66.21;102343.59;5080920;28;20041;-76
2022/06/02 10:14:11;;;;;;;2.53;2.30;;;;;;;13.93;66.44;102338.19;5079955;28;20092;-77
2022/06/02 10:16:43;;;;;;;;;;;;;;;13.98;67.01;102336.28;5054895;28;20047;-76
2022/06/02 10:19:38;;;;;;;5.72;2.15;;;;;;;14.05;63.47;102339.59;5080716;28;19920;-76
2022/06/02 10:22:34;;;;;;;2.33;2.15;;;;;;;14.08;62.98;102335.09;5068365;28;20371;-76
2022/06/02 10:25:12;;;;;;;2.45;2.25;;;;;;;14.11;63.28;102332.34;5077909;28;20078;-76
2022/06/02 10:27:37;;;;;;;3.13;2.17;;;;;;;14.16;62.65;102321.66;5068267;28;20020;-76
2022/06/02 10:30:24;;;;;;;2.30;2.20;;;;;;;14.33;62.86;102332.50;5077574;28;20036;-76
2022/06/02 10:33:16;;;;;;;2.50;2.30;;;;;;;14.37;64.00;102328.00;5079885;28;20036;-76
2022/06/02 10:36:01;;;;;;;2.60;2.05;;;;;;;14.42;64.46;102318.16;5078828;28;20359;-76
2022/06/02 10:38:52;;;;;;;2.50;2.30;;;;;;;14.49;63.97;102317.03;5078593;28;20036;-76
2022/06/02 10:41:44;;;;;;;4.50;2.42;;;;;;;14.61;62.95;102322.84;5074696;28;20040;-76
2022/06/02 10:44:21;;;;;;;4.00;2.72;;;;;;;14.70;63.31;102320.78;5073443;28;20326;-76
2022/06/02 10:47:05;;;;;;;2.78;2.53;;;;;;;14.76;63.18;102320.56;5082821;28;20036;-76
2022/06/02 10:49:44;;;;;;;3.20;3.00;;;;;;;14.87;63.47;102312.25;5083750;28;20044;-77
2022/06/02 10:52:41;;;;;;;2.70;2.50;;;;;;;14.89;64.27;102307.78;5080046;28;20066;-76
2022/06/02 10:55:34;;;;;;;4.45;3.10;;;;;;;14.90;61.48;102306.03;5073496;28;20048;-77
2022/06/02 10:58:38;;;;;;;3.28;2.88;;;;;;;14.93;63.22;102306.75;5081941;28;20342;-76
2022/06/02 11:01:41;;;;;;;3.25;3.05;;;;;;;15.06;63.11;102304.56;5066787;28;20060;-76
2022/06/02 11:04:41;;;;;;;5.47;3.10;;;;;;;15.07;62.96;102303.63;5085003;28;20035;-76
2022/06/02 11:07:28;;;;;;;4.10;3.00;;;;;;;15.14;63.27;102306.94;5058558;28;20033;-76
2022/06/02 11:10:05;;;;;;;3.60;3.38;;;;;;;15.22;62.77;102307.50;5079139;28;20036;-76
2022/06/02 11:13:00;;;;;;;3.92;3.35;;;;;;;15.28;60.12;102307.28;5074019;28;20040;-76
2022/06/02 11:15:25;;;;;;;5.45;3.83;;;;;;;15.34;58.86;102304.41;5008839;28;20435;-76
2022/06/02 11:18:29;;;;;;;4.32;3.65;;;;;;;15.39;60.47;102301.59;5078264;28;20096;-76
2022/06/02 11:20:54;;;;;;;5.03;3.63;;;;;;;15.43;61.89;102308.47;4995939;28;20050;-76
2022/06/02 11:23:34;;;;;;;3.70;3.38;;;;;;;15.47;61.07;102304.78;5062754;28;20093;-76
2022/06/02 11:26:06;;;;;;;5.05;3.90;;;;;;;15.46;58.65;102296.94;5080626;28;20109;-76
2022/06/02 11:28:53;;;;;;;4.15;3.85;;;;;;;15.46;59.28;102302.22;5058568;28;20362;-76
2022/06/02 11:31:46;;;;;;;3.67;3.30;;;;;;;15.48;59.97;102305.66;5070843;28;20043;-77
2022/06/02 11:34:41;;;;;;;3.47;3.28;;;;;;;15.56;59.92;102295.66;5086774;28;20064;-76
2022/06/02 11:37:09;;;;;;;3.63;3.10;;;;;;;15.63;60.50;102298.94;5072728;28;20035;-76
2022/06/02 11:39:46;;;;;;;5.90;3.13;;;;;;;15.67;61.43;102296.09;5081799;28;20088;-76
2022/06/02 11:42:45;;;;;;;2.60;2.38;;;;;;;15.68;55.99;102300.47;5074899;28;20286;-77
2022/06/02 11:45:28;;;;;;;5.38;3.58;;;;;;;15.71;58.68;102294.22;5067025;28;20093;-76
2022/06/02 11:48:19;;;;;;;3.92;3.63;;;;;;;15.84;58.43;102292.81;5081935;28;20335;-76
2022/06/02 11:51:14;;;;;;;4.97;3.75;;;;;;;15.81;59.63;102295.63;5059549;28;20279;-76
2022/06/02 11:53:51;;;;;;;4.47;4.18;;;;;;;15.87;58.99;102297.16;5071433;28;20495;-76
2022/06/02 11:56:52;;;;;;;4.90;4.50;;;;;;;15.84;60.11;102292.81;5077630;28;20320;-76
2022/06/02 11:59:26;;;;;;;5.22;4.85;;;;;;;15.88;60.55;102289.16;5079589;28;20036;-76
2022/06/02 12:02:28;;;;;;;4.65;4.20;;;;;;;15.85;59.43;102284.00;5077870;28;20085;-76
2022/06/02 12:05:24;;;;;;;5.00;4.50;;;;;;;15.83;59.03;102285.00;5073220;28;20040;-76
2022/06/02 12:08:12;;;;;;;5.13;4.78;;;;;;;15.76;57.51;102280.88;5076607;28;20050;-76
2022/06/02 12:11:00;;;;;;;4.35;3.78;;;;;;;15.71;58.66;102278.38;5080403;28;20032;-76
2022/06/02 12:13:55;;;;;;;4.55;4.15;;;;;;;15.65;59.23;102282.09;5078555;28;20209;-76
2022/06/02 12:16:35;;;;;;;5.47;3.85;;;;;;;15.66;59.34;102272.41;5036995;28;20440;-76
2022/06/02 12:19:09;;;;;;;5.07;3.90;;;;;;;15.76;59.92;102275.59;5083788;28;20058;-76
2022/06/02 12:21:40;;;;;;;3.95;3.70;;;;;;;15.87;58.60;102268.94;5081602;28;20036;-76
2022/06/02 12:24:42;;;;;;;4.63;4.22;;;;;;;15.88;59.33;102261.88;5080980;28;20386;-76
2022/06/02 12:27:40;;;;;;;4.30;3.85;;;;;;;15.95;60.16;102271.25;5062591;28;20205;-77
2022/06/02 12:30:14;;;;;;;3.65;3.30;;;;;;;15.97;58.78;102260.63;5084449;28;20043;-76
2022/06/02 12:32:40;;;;;;;3.30;3.00;;;;;;;15.98;60.64;102265.00;5060714;28;20067;-76
2022/06/02 12:35:19;;;;;;;3.08;2.88;;;;;;;16.02;60.76;102263.97;5083526;28;20332;-76
2022/06/02 12:38:11;;;;;;;3.03;2.80;;;;;;;16.07;61.22;102262.00;5080606;28;20032;-77
2022/06/02 12:41:01;;;;;;;3.15;2.95;;;;;;;16.11;60.15;102253.84;5059668;28;20296;-76
2022/06/02 12:43:56;;;;;;;2.90;2.70;;;;;;;16.15;60.97;102254.59;5052212;28;20032;-76
2022/06/02 12:46:58;;;;;;;2.92;2.72;;;;;;;16.19;58.33;102253.56;5085504;28;20028;-76
2022/06/02 12:49:36;;;;;;;3.10;2.90;;;;;;;16.16;56.56;102255.47;5062165;28;20316;-76
2022/06/02 12:52:16;;;;;;;3.20;2.90;;;;;;;16.16;57.85;102251.03;5082328;28;20036;-76
2022/06/02 12:55:02;;;;;;;2.80;2.60;;;;;;;16.18;58.72;102248.34;5077528;28;20059;-76
2022/06/02 12:57:28;;;;;;;3.60;3.30;;;;;;;16.18;57.88;102246.53;5073348;28;20329;-76
2022/06/02 13:00:16;;;;;;;2.93;2.73;;;;;;;16.24;57.53;102245.41;5078743;28;20034;-76